Topeka, Kansas
Current Conditions -  °F | °C
As of 10:53 PM on Thursday 27 Nov 2014 (Local Time) from KTOP Reporting Station
Clear Clear  
Wind Chill: 26°   Ceiling: Unl
Heat Index: 32°   Visibility: 10mi
Dew Point: 22°   Wind: 7mph
Humidity: 66%   Direction: 120°ESE
Pressure: 30.24"   Gusts: NA
Location:  39.06°N, 95.68°W
Report Text: KTOP 280453Z AUTO 12006KT 10SM CLR 00/M06 A3024 RMK AO2 SLP248 T00001056
Loading
Personal Weather Stations






























Interactive Weather Map New forecast layout! Learn more

10-Day Weather Forecast

Advertisements
Track Severe Weather on mobile